Dennis J. Pasentine — WDF2813 — position and weather

sailwx.info

Track history (hours):
 
Tides and Currents Weather Stations Pressure Air Temp Water Temp Dewpoint Dewpoint Depression Visibility Wind Speed Wind Dir Waves Ship Positions

Dennis J. Pasentine

Owner: Florida Marine Transporters, Inc., Mandeville, LA. More information available from US FCC via Universal Licensing System and Coast Guard Vessel Documentation Center.

Last reported at 2016-Apr-25 02:31 UTC. Time now 2016-May-04 23:05 UTC.
Position N 32°39' W 091°09'.
Warning: this ship's position is 9 days out of date.

Length 42 m.

Type: Towing. MMSI: 367432180.

Date/timePositionNaut miles runAvg speedWind from/ knotsBaromVisibWave heightAir tempDewpointWater temp
2016-Apr-25 02:31N 32°39' W 091°09'5 5.4
2016-Apr-25 01:32N 32°34' W 091°06'5 5.1
2016-Apr-25 00:33N 32°29' W 091°07'5 5.1
2016-Apr-24 23:33N 32°26' W 091°02'4 4.2
2016-Apr-24 22:34N 32°22' W 091°00'3 3.5
2016-Apr-24 21:33N 32°21' W 090°56'3 3.2
2016-Apr-24 20:33N 32°18' W 090°56'5 4.5
2016-Apr-24 19:34N 32°14' W 090°59'5 4.7
2016-Apr-24 18:33N 32°09' W 091°00'6 3.9
2016-Apr-24 17:07N 32°08' W 091°06'10 3.5
2016-Apr-24 14:20N 31°59' W 091°11'  
2016-Apr-21 12:32N 30°03' W 090°36'0 0.0
2016-Apr-21 07:24N 30°03' W 090°36'  
Track history (hours):
 
Tides and Currents Weather Stations Pressure Air Temp Water Temp Dewpoint Dewpoint Depression Visibility Wind Speed Wind Dir Waves Ship Positions

Dennis J. Pasentine

Owner: Florida Marine Transporters, Inc., Mandeville, LA. More information available from US FCC via Universal Licensing System and Coast Guard Vessel Documentation Center.

Last reported at 2016-Apr-25 02:31 UTC. Time now 2016-May-04 23:05 UTC.
Position N 32°39' W 091°09'.
Warning: this ship's position is 9 days out of date.

Length 42 m.

Type: Towing. MMSI: 367432180.

Date/timePositionNaut miles runAvg speedWind from/ knotsBaromVisibWave heightAir tempDewpointWater temp
2016-Apr-25 02:31N 32°39' W 091°09'5 5.4
2016-Apr-25 01:32N 32°34' W 091°06'5 5.1
2016-Apr-25 00:33N 32°29' W 091°07'5 5.1
2016-Apr-24 23:33N 32°26' W 091°02'4 4.2
2016-Apr-24 22:34N 32°22' W 091°00'3 3.5
2016-Apr-24 21:33N 32°21' W 090°56'3 3.2
2016-Apr-24 20:33N 32°18' W 090°56'5 4.5
2016-Apr-24 19:34N 32°14' W 090°59'5 4.7
2016-Apr-24 18:33N 32°09' W 091°00'6 3.9
2016-Apr-24 17:07N 32°08' W 091°06'10 3.5
2016-Apr-24 14:20N 31°59' W 091°11'  
2016-Apr-21 12:32N 30°03' W 090°36'0 0.0
2016-Apr-21 07:24N 30°03' W 090°36'  

Dump ship's entire track history